Terminal Aerodrome Forecast
Issued by NWS Rapid City, SD

Home | Current Version | Previous Version | Text Only | Print | Product List | Glossary Off
Versions: 1 2 3 4 5 6 7 8 9 10 11 12 13 14 15 16 17 18

000
FTUS43 KUNR 240853 AAA
TAFRAP
TAF AMD
KRAP 240853Z 2409/2506 34028G38KT 5SM -SHRASN BKN012 OVC025
     FM241200 34024G35KT P6SM OVC020
     FM241900 35018KT P6SM SCT020 BKN035
     FM250000 32008KT P6SM SCT035 BKN080=

USA.gov is the U.S. government's official web portal to all federal, state and local government web resources and services.